Time;durP1;ratioP1;P1;durP2;ratioP2;P2;SDS_P1;SDS_P2;PMS_P1;PMS_P2;Temp;Humidity;BMP_temperature;BMP_pressure;BME280_temperature;BME280_humidity;BME280_pressure;Samples;Min_cycle;Max_cycle;Signal;HPM_P1;HPM_P2
2023/08/24 00:01:43;;;;;;;6.65;3.40;;;21.60;99.90;;;;;;5009473;28;20228;-73
2023/08/24 00:04:09;;;;;;;4.13;3.10;;;21.60;99.90;;;;;;5012506;28;20307;-73
2023/08/24 00:06:34;;;;;;;5.63;3.85;;;21.50;99.90;;;;;;5007626;28;20201;-74
2023/08/24 00:09:00;;;;;;;4.35;3.22;;;21.50;99.90;;;;;;5008080;28;20674;-73
2023/08/24 00:11:26;;;;;;;7.60;3.55;;;21.50;99.90;;;;;;5007174;28;20217;-73
2023/08/24 00:13:52;;;;;;;4.85;3.17;;;21.50;99.90;;;;;;5005417;28;20718;-74
2023/08/24 00:16:19;;;;;;;3.70;2.85;;;21.40;99.90;;;;;;5005427;28;20350;-73
2023/08/24 00:18:45;;;;;;;4.20;3.00;;;21.40;99.90;;;;;;5002481;28;20181;-72
2023/08/24 00:21:12;;;;;;;5.13;3.35;;;21.40;99.90;;;;;;5004599;28;20718;-73
2023/08/24 00:23:38;;;;;;;5.80;3.15;;;21.40;99.90;;;;;;5005777;28;20795;-70
2023/08/24 00:26:04;;;;;;;5.30;3.40;;;21.40;99.90;;;;;;5004901;28;20205;-73
2023/08/24 00:28:30;;;;;;;4.28;2.97;;;21.40;99.90;;;;;;5012140;28;20600;-73
2023/08/24 00:30:55;;;;;;;4.90;2.92;;;21.40;99.90;;;;;;5011228;28;20628;-73
2023/08/24 00:33:21;;;;;;;4.35;3.17;;;21.40;99.90;;;;;;5011483;28;20237;-73
2023/08/24 00:35:46;;;;;;;5.03;3.40;;;21.40;99.90;;;;;;5007347;28;20591;-73
2023/08/24 00:38:12;;;;;;;6.95;2.97;;;21.40;99.90;;;;;;5009761;28;20676;-73
2023/08/24 00:40:38;;;;;;;4.00;3.03;;;21.30;99.90;;;;;;5007927;28;20244;-71
2023/08/24 00:43:04;;;;;;;7.28;3.00;;;21.30;99.90;;;;;;5008497;28;20193;-73
2023/08/24 00:45:31;;;;;;;3.85;2.53;;;21.30;99.90;;;;;;5007077;28;20837;-74
2023/08/24 00:47:56;;;;;;;3.80;3.10;;;21.30;99.90;;;;;;5005820;28;20584;-73
2023/08/24 00:50:22;;;;;;;5.07;3.20;;;21.30;99.90;;;;;;5006541;28;20217;-74
2023/08/24 00:52:49;;;;;;;7.68;3.10;;;21.30;99.90;;;;;;5002933;28;20205;-74
2023/08/24 00:55:16;;;;;;;6.20;2.97;;;21.30;99.90;;;;;;5005483;28;20212;-73
2023/08/24 00:57:42;;;;;;;4.55;3.20;;;21.30;99.90;;;;;;5002125;28;20657;-74
2023/08/24 01:00:10;;;;;;;6.53;3.42;;;21.30;99.90;;;;;;5011331;28;20209;-73
2023/08/24 01:02:36;;;;;;;4.55;3.40;;;21.30;99.90;;;;;;5012345;28;20679;-73
2023/08/24 01:05:04;;;;;;;4.75;3.08;;;21.30;99.90;;;;;;5010606;28;20217;-73
2023/08/24 01:07:30;;;;;;;6.68;3.60;;;21.30;99.90;;;;;;5011104;28;20682;-73
2023/08/24 01:09:56;;;;;;;5.05;3.65;;;21.20;99.90;;;;;;5009453;28;20221;-73
2023/08/24 01:12:37;;;;;;;5.53;3.47;;;21.30;99.90;;;;;;5009863;28;20225;-73
2023/08/24 01:15:14;;;;;;;5.07;3.15;;;21.30;99.90;;;;;;5007795;28;20217;-73
2023/08/24 01:17:43;;;;;;;6.05;3.85;;;21.30;99.90;;;;;;5006934;28;20227;-73
2023/08/24 01:20:10;;;;;;;7.35;3.20;;;21.40;99.90;;;;;;5006218;28;20296;-73
2023/08/24 01:22:56;;;;;;;3.85;3.15;;;21.40;99.90;;;;;;5006258;28;20270;-74
2023/08/24 01:25:42;;;;;;;5.95;3.05;;;21.30;99.90;;;;;;5005083;28;20631;-73
2023/08/24 01:28:11;;;;;;;3.40;2.63;;;21.40;99.90;;;;;;5005873;28;20263;-71
2023/08/24 01:30:37;;;;;;;4.45;3.28;;;21.40;99.90;;;;;;5003621;28;20223;-73
2023/08/24 01:33:04;;;;;;;5.25;3.15;;;21.40;99.90;;;;;;5003470;28;20263;-72
2023/08/24 01:35:30;;;;;;;5.78;3.22;;;21.30;99.90;;;;;;5002357;28;20205;-74
2023/08/24 01:37:57;;;;;;;5.25;3.22;;;21.40;99.90;;;;;;4999314;28;20256;-73
2023/08/24 01:40:30;;;;;;;5.35;3.40;;;21.40;99.90;;;;;;4991276;28;20182;-73
2023/08/24 01:43:00;;;;;;;4.80;3.40;;;21.40;99.90;;;;;;4989319;28;20193;-73
2023/08/24 01:45:29;;;;;;;4.90;2.85;;;21.40;99.90;;;;;;4990412;28;20217;-73
2023/08/24 01:47:56;;;;;;;4.07;2.92;;;21.40;99.90;;;;;;4987140;28;20213;-75
2023/08/24 01:50:22;;;;;;;5.70;2.75;;;21.40;99.90;;;;;;4989306;28;20213;-73
2023/08/24 01:52:49;;;;;;;3.67;2.70;;;21.40;99.90;;;;;;4986924;28;20213;-71
2023/08/24 01:55:18;;;;;;;4.68;3.08;;;21.50;99.90;;;;;;4987895;28;20202;-73
2023/08/24 01:57:44;;;;;;;4.55;2.58;;;21.50;99.90;;;;;;4986459;28;20178;-73
2023/08/24 02:00:10;;;;;;;3.25;2.55;;;21.50;99.90;;;;;;4986279;28;20209;-73
2023/08/24 02:02:36;;;;;;;3.63;2.58;;;21.50;99.90;;;;;;4986548;28;20206;-73
2023/08/24 02:05:02;;;;;;;4.13;2.88;;;21.50;99.90;;;;;;4982300;28;20218;-75
2023/08/24 02:07:28;;;;;;;3.47;2.25;;;21.40;99.90;;;;;;4984786;28;20301;-73
2023/08/24 02:09:54;;;;;;;6.25;3.10;;;21.40;99.90;;;;;;4982448;28;20213;-74
2023/08/24 02:12:19;;;;;;;3.55;2.75;;;21.30;99.90;;;;;;4984337;28;20651;-73
2023/08/24 02:14:45;;;;;;;4.22;2.83;;;21.40;99.90;;;;;;4983781;28;20767;-73
2023/08/24 02:17:11;;;;;;;2.78;2.47;;;21.40;99.90;;;;;;4991514;28;20213;-73
2023/08/24 02:19:36;;;;;;;4.78;2.90;;;21.50;99.90;;;;;;4990685;28;20628;-73
2023/08/24 02:22:02;;;;;;;4.10;2.85;;;21.40;99.90;;;;;;4989639;28;20237;-75
2023/08/24 02:24:28;;;;;;;3.75;2.72;;;21.40;99.90;;;;;;4984776;28;20296;-73
2023/08/24 02:26:53;;;;;;;3.35;2.83;;;21.50;99.90;;;;;;4987288;28;20294;-73
2023/08/24 02:29:19;;;;;;;3.85;2.88;;;21.50;99.90;;;;;;4988068;28;20205;-73
2023/08/24 02:31:44;;;;;;;5.82;3.05;;;21.50;99.90;;;;;;4986911;28;20994;-74
2023/08/24 02:34:15;;;;;;;3.90;3.10;;;21.50;99.90;;;;;;4986795;28;20213;-72
2023/08/24 02:36:40;;;;;;;3.58;3.10;;;21.50;99.90;;;;;;5000329;28;20305;-72
2023/08/24 02:39:07;;;;;;;5.45;3.25;;;21.50;99.90;;;;;;5003708;28;20653;-73
2023/08/24 02:41:33;;;;;;;3.92;3.10;;;21.40;99.90;;;;;;5004428;28;20201;-73
2023/08/24 02:43:59;;;;;;;3.38;3.08;;;21.50;99.90;;;;;;5000778;28;20214;-75
2023/08/24 02:46:25;;;;;;;3.58;3.15;;;21.40;99.90;;;;;;5003740;28;20180;-73
2023/08/24 02:48:50;;;;;;;5.25;3.30;;;21.50;99.90;;;;;;4999960;28;20177;-73
2023/08/24 02:51:16;;;;;;;5.68;3.30;;;21.50;99.90;;;;;;5001893;28;20592;-73
2023/08/24 02:53:41;;;;;;;5.68;3.90;;;21.40;99.90;;;;;;4997488;28;20300;-74
2023/08/24 02:56:07;;;;;;;5.68;3.60;;;21.20;99.90;;;;;;4989084;28;21136;-73
2023/08/24 02:58:33;;;;;;;4.38;3.42;;;21.20;99.90;;;;;;4989278;28;20217;-73
2023/08/24 03:00:58;;;;;;;6.03;3.58;;;21.20;99.90;;;;;;4986467;28;20200;-73
2023/08/24 03:03:25;;;;;;;5.10;3.33;;;21.30;99.90;;;;;;4989169;28;20377;-73
2023/08/24 03:05:58;;;;;;;4.80;3.45;;;21.40;99.90;;;;;;4987596;28;20209;-74
2023/08/24 03:08:25;;;;;;;4.18;3.25;;;21.30;99.90;;;;;;4989287;28;20224;-73
2023/08/24 03:10:50;;;;;;;5.25;3.65;;;21.30;99.90;;;;;;4984840;28;20217;-74
2023/08/24 03:13:16;;;;;;;4.55;3.40;;;21.30;99.90;;;;;;4985041;28;20220;-73
2023/08/24 03:15:42;;;;;;;3.72;3.28;;;21.30;99.90;;;;;;4990524;28;20181;-72
2023/08/24 03:18:11;;;;;;;8.95;3.50;;;21.20;99.90;;;;;;4989250;28;20332;-73
2023/08/24 03:20:36;;;;;;;3.97;3.10;;;21.00;99.90;;;;;;4989055;28;20586;-73
2023/08/24 03:23:03;;;;;;;4.32;3.85;;;20.90;99.90;;;;;;4986088;28;20201;-73
2023/08/24 03:25:28;;;;;;;4.68;3.30;;;21.00;99.90;;;;;;4989103;28;20185;-72
2023/08/24 03:27:55;;;;;;;5.18;2.95;;;21.00;99.90;;;;;;4990228;28;20180;-73
2023/08/24 03:30:22;;;;;;;5.32;2.92;;;21.10;99.90;;;;;;4996717;28;20229;-73
2023/08/24 03:32:48;;;;;;;4.00;3.47;;;21.10;99.90;;;;;;4992449;28;20260;-73
2023/08/24 03:35:14;;;;;;;5.05;3.40;;;20.90;99.90;;;;;;4994171;28;20610;-72
2023/08/24 03:37:40;;;;;;;4.47;3.05;;;21.00;99.90;;;;;;4992776;28;20594;-73
2023/08/24 03:40:06;;;;;;;3.38;3.08;;;21.10;99.90;;;;;;4993403;28;20268;-73
2023/08/24 03:42:32;;;;;;;4.18;3.40;;;21.00;99.90;;;;;;4993807;28;20368;-74
2023/08/24 03:44:59;;;;;;;4.07;3.33;;;20.90;99.90;;;;;;4990928;28;20739;-70
2023/08/24 03:47:25;;;;;;;4.85;2.83;;;21.00;99.90;;;;;;4992629;28;20202;-73
2023/08/24 03:49:51;;;;;;;4.30;2.85;;;20.90;99.90;;;;;;4990600;28;20288;-74
2023/08/24 03:52:16;;;;;;;3.88;3.13;;;21.00;99.90;;;;;;4990485;28;20174;-73
2023/08/24 03:54:42;;;;;;;5.30;3.28;;;21.00;99.90;;;;;;4990487;28;20225;-73
2023/08/24 03:57:07;;;;;;;5.05;3.50;;;20.90;99.90;;;;;;4987392;28;20421;-73
2023/08/24 03:59:33;;;;;;;5.85;3.00;;;21.00;99.90;;;;;;4989910;28;20210;-73
2023/08/24 04:02:02;;;;;;;3.88;2.88;;;21.10;99.90;;;;;;4989273;28;20208;-71
2023/08/24 04:04:28;;;;;;;4.20;3.10;;;21.10;99.90;;;;;;4988830;28;20198;-73
2023/08/24 04:06:53;;;;;;;4.05;2.70;;;21.20;99.90;;;;;;4993164;28;20245;-74
2023/08/24 04:09:19;;;;;;;3.78;2.90;;;21.20;99.90;;;;;;4993687;28;20381;-73
2023/08/24 04:11:45;;;;;;;4.13;2.70;;;21.20;99.90;;;;;;4995457;28;20229;-73
2023/08/24 04:14:10;;;;;;;6.18;3.00;;;21.10;99.90;;;;;;4993168;28;20279;-73
2023/08/24 04:16:36;;;;;;;3.35;2.65;;;21.00;99.90;;;;;;4995422;28;20220;-72
2023/08/24 04:19:01;;;;;;;5.35;3.60;;;20.80;99.90;;;;;;4993331;28;20549;-71
2023/08/24 04:21:27;;;;;;;3.97;2.80;;;20.90;99.90;;;;;;4991891;28;20202;-73
2023/08/24 04:23:53;;;;;;;3.78;3.38;;;20.90;99.90;;;;;;4991088;28;20214;-72
2023/08/24 04:26:19;;;;;;;4.10;3.20;;;21.00;99.90;;;;;;4988357;28;20213;-73
2023/08/24 04:28:44;;;;;;;4.60;3.15;;;20.90;99.90;;;;;;4986449;28;20619;-74
2023/08/24 04:31:10;;;;;;;3.55;3.00;;;20.90;99.90;;;;;;4985888;28;20229;-73
2023/08/24 04:33:35;;;;;;;3.90;2.90;;;20.80;99.90;;;;;;4987223;28;20201;-73
2023/08/24 04:36:03;;;;;;;4.03;2.80;;;20.70;99.90;;;;;;4983029;28;20582;-73
2023/08/24 04:38:29;;;;;;;4.20;3.00;;;20.80;99.90;;;;;;4984530;28;20271;-74
2023/08/24 04:40:55;;;;;;;4.38;3.03;;;21.00;99.90;;;;;;4981614;28;20709;-70
2023/08/24 04:43:22;;;;;;;3.60;2.65;;;21.20;99.90;;;;;;4987725;28;20186;-74
2023/08/24 04:45:51;;;;;;;3.17;2.70;;;21.20;99.90;;;;;;4991934;28;20201;-74
2023/08/24 04:48:16;;;;;;;4.63;3.40;;;21.40;99.90;;;;;;4990805;28;20591;-73
2023/08/24 04:50:43;;;;;;;3.92;3.20;;;21.40;99.90;;;;;;4991829;28;20216;-74
2023/08/24 04:53:09;;;;;;;4.13;3.20;;;21.30;99.90;;;;;;4988332;28;20217;-74
2023/08/24 04:55:35;;;;;;;6.25;3.30;;;21.40;99.90;;;;;;5003363;23;20216;-72
2023/08/24 04:58:00;;;;;;;6.25;3.28;;;21.20;99.90;;;;;;5005636;28;20265;-74
2023/08/24 05:00:26;;;;;;;4.05;3.15;;;21.20;99.90;;;;;;4994209;28;20280;-73
2023/08/24 05:02:52;;;;;;;4.18;3.20;;;21.20;99.90;;;;;;5001324;28;20197;-73
2023/08/24 05:05:17;;;;;;;4.63;3.25;;;21.30;99.90;;;;;;5006076;28;20213;-73
2023/08/24 05:07:43;;;;;;;5.00;3.25;;;21.50;99.90;;;;;;4988643;28;20344;-73
2023/08/24 05:10:09;;;;;;;4.75;3.20;;;21.90;99.90;;;;;;4983175;28;20225;-73
2023/08/24 05:12:35;;;;;;;5.40;2.78;;;22.10;99.90;;;;;;4981712;28;20233;-73
2023/08/24 05:15:04;;;;;;;4.95;3.40;;;22.20;99.90;;;;;;4978932;28;20202;-73
2023/08/24 05:17:31;;;;;;;5.85;2.97;;;22.30;99.90;;;;;;4980069;28;20220;-73
2023/08/24 05:19:58;;;;;;;13.02;8.13;;;22.30;99.90;;;;;;4988171;28;20218;-73
2023/08/24 05:22:24;;;;;;;4.28;3.08;;;22.60;99.90;;;;;;4984218;28;20182;-73
2023/08/24 05:24:49;;;;;;;6.07;4.50;;;22.80;99.90;;;;;;5000309;28;20273;-72
2023/08/24 05:27:15;;;;;;;5.15;4.00;;;23.00;99.90;;;;;;4989081;28;20302;-73
2023/08/24 05:29:41;;;;;;;7.22;5.10;;;23.20;99.90;;;;;;4994519;28;20205;-73
2023/08/24 05:32:07;;;;;;;8.88;6.15;;;24.30;99.90;;;;;;4984064;28;20230;-73
2023/08/24 05:34:33;;;;;;;4.85;3.50;;;24.60;99.90;;;;;;4993217;28;20212;-73
2023/08/24 05:36:58;;;;;;;5.72;3.80;;;25.50;99.90;;;;;;4987053;28;20285;-73
2023/08/24 05:39:24;;;;;;;4.28;2.83;;;25.00;99.90;;;;;;4980378;28;20210;-73
2023/08/24 05:41:51;;;;;;;3.20;2.80;;;25.10;99.90;;;;;;4985169;28;20205;-73
2023/08/24 05:44:18;;;;;;;5.13;3.83;;;26.40;99.90;;;;;;4985344;28;20245;-73
2023/08/24 05:46:44;;;;;;;5.05;2.95;;;26.80;99.90;;;;;;4974839;28;20222;-72
2023/08/24 05:49:10;;;;;;;13.63;11.10;;;26.70;99.90;;;;;;4982041;28;20210;-71
2023/08/24 05:51:36;;;;;;;12.65;7.20;;;26.60;99.90;;;;;;4978876;28;20708;-73
2023/08/24 05:54:02;;;;;;;8.75;5.75;;;28.00;99.90;;;;;;4980837;28;20759;-73
2023/08/24 05:56:27;;;;;;;9.18;6.95;;;28.50;99.90;;;;;;4989322;28;20229;-73
2023/08/24 05:58:54;;;;;;;5.25;3.58;;;29.50;99.90;;;;;;4994642;28;20292;-74
2023/08/24 06:01:20;;;;;;;6.25;2.90;;;29.40;99.90;;;;;;4982087;28;20191;-73
2023/08/24 06:03:45;;;;;;;4.07;2.88;;;29.60;99.90;;;;;;4992248;28;20177;-71
2023/08/24 06:06:11;;;;;;;3.95;2.60;;;30.80;99.90;;;;;;4996692;28;20292;-73
2023/08/24 06:08:37;;;;;;;5.13;2.80;;;32.30;99.90;;;;;;4986259;28;20569;-71
2023/08/24 06:11:02;;;;;;;5.88;3.13;;;33.30;99.90;;;;;;4983303;28;20307;-73
2023/08/24 06:13:28;;;;;;;4.43;2.58;;;34.10;99.90;;;;;;4984121;28;20265;-73
2023/08/24 06:15:54;;;;;;;3.35;2.80;;;34.60;99.90;;;;;;4974695;28;20204;-73
2023/08/24 06:18:20;;;;;;;3.42;2.22;;;35.40;98.20;;;;;;4980369;28;20727;-73
2023/08/24 06:20:48;;;;;;;13.00;11.68;;;36.10;94.90;;;;;;4988730;28;20695;-72
2023/08/24 06:23:15;;;;;;;6.00;4.10;;;36.30;93.20;;;;;;4980408;28;20341;-73
2023/08/24 06:25:41;;;;;;;5.22;3.80;;;35.80;92.20;;;;;;4982509;28;20607;-73
2023/08/24 06:28:08;;;;;;;4.05;2.92;;;35.00;92.70;;;;;;4977922;28;20182;-72
2023/08/24 06:30:40;;;;;;;7.63;5.30;;;35.40;92.10;;;;;;4981084;28;20225;-72
2023/08/24 06:33:07;;;;;;;3.72;3.13;;;35.50;92.20;;;;;;4983328;28;20640;-72
2023/08/24 06:35:35;;;;;;;3.08;2.78;;;36.30;90.90;;;;;;5000068;28;20225;-72
2023/08/24 06:38:02;;;;;;;3.08;2.78;;;36.50;90.30;;;;;;4997227;28;20296;-72
2023/08/24 06:40:28;;;;;;;5.03;2.80;;;37.10;87.90;;;;;;4982667;28;20181;-72
2023/08/24 06:42:54;;;;;;;4.28;2.85;;;36.80;86.30;;;;;;4997264;28;20188;-72
2023/08/24 06:45:20;;;;;;;3.58;2.58;;;37.00;86.00;;;;;;4991618;28;20212;-72
2023/08/24 06:47:46;;;;;;;3.15;2.85;;;37.60;83.60;;;;;;4993861;28;20211;-71
2023/08/24 06:50:12;;;;;;;4.57;3.03;;;37.40;82.80;;;;;;4989351;28;20217;-72
2023/08/24 06:52:37;;;;;;;5.43;2.95;;;37.40;82.80;;;;;;4979333;28;20254;-72
2023/08/24 06:55:04;;;;;;;3.38;2.60;;;37.50;82.00;;;;;;4976159;28;20177;-73
2023/08/24 06:57:30;;;;;;;4.75;2.90;;;37.40;81.50;;;;;;4980285;28;20726;-73
2023/08/24 06:59:56;;;;;;;3.08;2.70;;;37.60;81.60;;;;;;4977199;28;20225;-72
2023/08/24 07:02:22;;;;;;;3.10;2.55;;;38.10;80.00;;;;;;4979113;28;20210;-73
2023/08/24 07:04:48;;;;;;;9.65;3.28;;;38.30;78.60;;;;;;4985202;28;20844;-72
2023/08/24 07:07:13;;;;;;;3.45;2.70;;;38.20;78.30;;;;;;4976297;28;20202;-73
2023/08/24 07:09:39;;;;;;;3.47;3.10;;;37.70;78.20;;;;;;4990925;28;20173;-73
2023/08/24 07:12:07;;;;;;;3.38;2.83;;;37.80;78.40;;;;;;4986109;28;20213;-73
2023/08/24 07:14:33;;;;;;;3.25;2.90;;;37.90;77.80;;;;;;4995448;28;20213;-72
2023/08/24 07:16:59;;;;;;;2.92;2.65;;;38.30;77.30;;;;;;4991313;28;20212;-73
2023/08/24 07:19:24;;;;;;;4.20;3.35;;;38.90;76.10;;;;;;4993902;28;20710;-72
2023/08/24 07:21:50;;;;;;;6.15;3.40;;;39.50;74.40;;;;;;4997874;28;20631;-72
2023/08/24 07:24:19;;;;;;;3.60;3.10;;;39.60;73.30;;;;;;4988616;28;20315;-73
2023/08/24 07:26:45;;;;;;;4.57;3.00;;;39.70;72.50;;;;;;4983541;28;20200;-73
2023/08/24 07:29:11;;;;;;;4.35;3.03;;;39.90;71.60;;;;;;4980625;28;20564;-73
2023/08/24 07:31:36;;;;;;;3.47;3.00;;;39.60;71.60;;;;;;4983620;28;20228;-72
2023/08/24 07:34:03;;;;;;;6.47;4.90;;;39.80;71.50;;;;;;4987221;28;20632;-72
2023/08/24 07:36:32;;;;;;;5.65;4.57;;;38.90;72.00;;;;;;4980247;28;20214;-73
2023/08/24 07:38:58;;;;;;;4.82;3.60;;;38.70;72.60;;;;;;4980397;28;20210;-73
2023/08/24 07:41:23;;;;;;;4.40;3.28;;;39.00;73.00;;;;;;4982122;28;20220;-73
2023/08/24 07:43:49;;;;;;;5.25;4.75;;;39.00;72.10;;;;;;4979133;28;20224;-71
2023/08/24 07:46:14;;;;;;;7.40;4.53;;;38.50;72.80;;;;;;4979017;28;20209;-72
2023/08/24 07:48:40;;;;;;;3.15;2.58;;;39.20;72.00;;;;;;4984080;28;20205;-72
2023/08/24 07:51:07;;;;;;;5.00;2.90;;;39.40;71.10;;;;;;4996981;28;20220;-73
2023/08/24 07:53:32;;;;;;;3.58;3.03;;;38.90;72.00;;;;;;4979107;28;20304;-73
2023/08/24 07:55:59;;;;;;;3.13;2.65;;;39.10;71.90;;;;;;4984771;28;20247;-73
2023/08/24 07:58:25;;;;;;;4.60;2.70;;;38.60;71.80;;;;;;4983327;28;20268;-73
2023/08/24 08:00:51;;;;;;;3.28;2.97;;;38.60;72.20;;;;;;4981960;28;20205;-72
2023/08/24 08:03:20;;;;;;;3.33;2.60;;;38.40;72.00;;;;;;4987278;28;20222;-72
2023/08/24 08:05:47;;;;;;;2.58;2.38;;;38.10;72.80;;;;;;4989950;28;20600;-70
2023/08/24 08:08:16;;;;;;;3.90;2.60;;;37.80;73.40;;;;;;4983308;28;20287;-72
2023/08/24 08:10:42;;;;;;;3.38;2.67;;;37.30;74.50;;;;;;4988814;28;20221;-72
2023/08/24 08:13:10;;;;;;;4.85;2.30;;;36.90;75.60;;;;;;4977072;28;20190;-72
2023/08/24 08:15:37;;;;;;;5.28;4.50;;;36.30;76.10;;;;;;4977982;28;20229;-72
2023/08/24 08:18:04;;;;;;;6.18;3.95;;;35.40;77.40;;;;;;4982359;28;20243;-72
2023/08/24 08:20:30;;;;;;;3.50;2.88;;;34.80;79.10;;;;;;4982042;28;20591;-72
2023/08/24 08:22:55;;;;;;;6.03;4.15;;;34.90;79.30;;;;;;4977593;28;20208;-71
2023/08/24 08:25:22;;;;;;;5.72;2.25;;;34.60;79.30;;;;;;4989251;28;20185;-72
2023/08/24 08:27:48;;;;;;;4.47;2.63;;;34.30;80.30;;;;;;4992429;28;20172;-72
2023/08/24 08:30:15;;;;;;;4.85;2.47;;;34.10;80.90;;;;;;4987382;28;20240;-72
2023/08/24 08:32:40;;;;;;;3.28;2.40;;;32.80;83.80;;;;;;4987792;28;20638;-72
2023/08/24 08:35:08;;;;;;;7.13;3.25;;;31.20;85.50;;;;;;4991851;28;20213;-72
2023/08/24 08:37:33;;;;;;;3.55;2.55;;;30.60;88.60;;;;;;4980490;28;20242;-72
2023/08/24 08:39:59;;;;;;;3.95;2.42;;;30.30;90.40;;;;;;4985822;28;20205;-72
2023/08/24 08:42:24;;;;;;;4.47;2.45;;;29.80;91.00;;;;;;4989497;28;20224;-72
2023/08/24 08:44:54;;;;;;;3.90;2.40;;;29.40;91.70;;;;;;4993225;28;20216;-72
2023/08/24 08:47:22;;;;;;;5.20;2.65;;;29.30;91.90;;;;;;4983545;28;20221;-72
2023/08/24 08:49:49;;;;;;;7.50;4.13;;;29.00;92.00;;;;;;4984789;28;20224;-71
2023/08/24 08:52:15;;;;;;;4.80;3.00;;;29.00;92.40;;;;;;4981694;28;20363;-73
2023/08/24 08:54:40;;;;;;;22.80;5.97;;;28.90;92.70;;;;;;4986184;28;20265;-73
2023/08/24 08:57:06;;;;;;;6.90;3.10;;;28.70;93.40;;;;;;4975212;28;20226;-72
2023/08/24 08:59:33;;;;;;;9.90;4.40;;;28.80;92.80;;;;;;4972938;28;20210;-72
2023/08/24 09:02:01;;;;;;;6.28;3.40;;;28.80;93.60;;;;;;4996088;28;20291;-72
2023/08/24 09:04:31;;;;;;;6.18;3.03;;;28.80;93.80;;;;;;4996398;28;20186;-73
2023/08/24 09:06:57;;;;;;;3.28;2.08;;;29.10;93.60;;;;;;4988441;28;20193;-72
2023/08/24 09:09:23;;;;;;;4.32;2.55;;;29.20;93.20;;;;;;4996009;28;20332;-72
2023/08/24 09:11:48;;;;;;;4.85;2.33;;;30.00;93.20;;;;;;4987405;28;20228;-72
2023/08/24 09:14:14;;;;;;;7.10;3.60;;;30.70;91.70;;;;;;4991502;28;20225;-72
2023/08/24 09:16:41;;;;;;;5.32;3.97;;;31.30;91.30;;;;;;4990728;28;20228;-73
2023/08/24 09:19:09;;;;;;;6.07;3.58;;;31.20;91.10;;;;;;4992396;28;20691;-73
2023/08/24 09:21:37;;;;;;;5.45;2.88;;;30.90;90.80;;;;;;4983547;28;20313;-73
2023/08/24 09:24:03;;;;;;;2.92;2.30;;;30.40;91.40;;;;;;4987793;28;20212;-73
2023/08/24 09:26:35;;;;;;;7.90;3.80;;;30.10;91.90;;;;;;4981211;28;20207;-73
2023/08/24 09:29:10;;;;;;;4.63;2.72;;;30.10;92.20;;;;;;4974469;28;20209;-73
2023/08/24 09:31:37;;;;;;;5.45;3.05;;;30.90;91.60;;;;;;4975665;28;20225;-73
2023/08/24 09:34:03;;;;;;;4.72;3.20;;;31.50;91.20;;;;;;4981062;28;20316;-73
2023/08/24 09:36:39;;;;;;;4.05;2.50;;;31.90;90.40;;;;;;4985259;28;20304;-72
2023/08/24 09:39:05;;;;;;;5.00;2.13;;;32.00;90.40;;;;;;4987576;28;20208;-73
2023/08/24 09:41:41;;;;;;;10.93;6.53;;;32.10;90.50;;;;;;4997858;28;20216;-71
2023/08/24 09:44:08;;;;;;;4.30;2.35;;;32.30;89.80;;;;;;4981120;28;20228;-73
2023/08/24 09:46:38;;;;;;;4.13;3.13;;;32.50;89.00;;;;;;4977904;28;20220;-71
2023/08/24 09:49:09;;;;;;;3.97;2.55;;;32.30;89.50;;;;;;4994450;28;20628;-75
2023/08/24 09:51:36;;;;;;;3.63;2.60;;;32.40;89.30;;;;;;4986229;28;20221;-72
2023/08/24 09:54:06;;;;;;;3.15;2.28;;;32.50;90.10;;;;;;4982541;28;20205;-73
2023/08/24 09:56:35;;;;;;;4.45;2.20;;;31.80;87.20;;;;;;4976327;28;20223;-73
2023/08/24 09:59:10;;;;;;;3.53;2.13;;;30.80;89.70;;;;;;4985065;28;20206;-72
2023/08/24 10:01:37;;;;;;;3.00;2.33;;;30.30;91.00;;;;;;4980259;28;20293;-72
2023/08/24 10:04:05;;;;;;;3.25;2.22;;;29.50;91.70;;;;;;4983378;28;20224;-73
2023/08/24 10:06:32;;;;;;;4.68;2.28;;;30.50;91.90;;;;;;4974474;28;20269;-73
2023/08/24 10:09:06;;;;;;;4.88;2.30;;;31.30;90.90;;;;;;4981722;28;20206;-73
2023/08/24 10:11:36;;;;;;;3.08;2.25;;;31.70;90.20;;;;;;4973307;28;20242;-74
2023/08/24 10:14:12;;;;;;;9.15;4.68;;;31.90;90.10;;;;;;4995574;28;20209;-73
2023/08/24 10:16:39;;;;;;;5.20;2.63;;;32.30;90.20;;;;;;4993127;28;20237;-73
2023/08/24 10:19:05;;;;;;;5.00;2.53;;;32.50;89.50;;;;;;4985880;28;20177;-73
2023/08/24 10:21:31;;;;;;;5.97;3.80;;;31.60;89.40;;;;;;4996204;28;20221;-72
2023/08/24 10:23:57;;;;;;;7.47;3.00;;;30.90;90.90;;;;;;4989500;28;20738;-72
2023/08/24 10:26:24;;;;;;;4.97;3.70;;;31.50;91.00;;;;;;4987600;28;20302;-73
2023/08/24 10:28:53;;;;;;;4.45;2.92;;;31.70;90.90;;;;;;4986614;28;20206;-73
2023/08/24 10:31:20;;;;;;;3.88;2.85;;;32.20;90.60;;;;;;4978040;28;20202;-74
2023/08/24 10:33:46;;;;;;;5.43;3.40;;;32.30;90.20;;;;;;4978597;28;20512;-72
2023/08/24 10:36:15;;;;;;;4.32;2.88;;;32.40;90.30;;;;;;4989467;28;20264;-72
2023/08/24 10:38:44;;;;;;;3.08;1.92;;;32.50;90.20;;;;;;4979901;28;20693;-73
2023/08/24 10:41:13;;;;;;;7.47;2.42;;;32.50;90.50;;;;;;4981859;28;20214;-73
2023/08/24 10:43:40;;;;;;;5.63;2.30;;;32.50;90.40;;;;;;4978908;28;20574;-72
2023/08/24 10:46:14;;;;;;;4.65;2.72;;;32.20;90.20;;;;;;4975287;28;20198;-73
2023/08/24 10:48:40;;;;;;;2.90;2.33;;;32.00;90.00;;;;;;4987257;28;20213;-73
2023/08/24 10:51:48;;;;;;;3.22;2.25;;;32.20;89.60;;;;;;4983625;28;20323;-73
2023/08/24 10:54:07;;;;;;;4.00;3.15;;;32.10;89.30;;;;;;4993839;28;20213;-72
2023/08/24 10:56:38;;;;;;;3.40;2.50;;;32.00;90.30;;;;;;4982250;28;20225;-69
2023/08/24 10:59:11;;;;;;;2.97;2.05;;;31.70;90.10;;;;;;4990987;28;20258;-72
2023/08/24 11:01:42;;;;;;;3.05;2.75;;;31.20;90.60;;;;;;4993238;28;20208;-72
2023/08/24 11:04:11;;;;;;;4.07;2.42;;;31.50;91.20;;;;;;4987200;28;20181;-71
2023/08/24 11:06:59;;;;;;;3.00;2.67;;;31.50;90.80;;;;;;4984382;28;20209;-71
2023/08/24 11:09:25;;;;;;;4.13;2.78;;;31.70;91.40;;;;;;4983188;28;20688;-71
2023/08/24 11:12:01;;;;;;;4.65;2.70;;;31.10;91.10;;;;;;4980810;28;20640;-71
2023/08/24 11:14:30;;;;;;;5.55;2.55;;;31.40;91.40;;;;;;4984622;28;20279;-71
2023/08/24 11:17:18;;;;;;;4.10;2.30;;;31.60;91.00;;;;;;4982235;28;20876;-71
2023/08/24 11:19:56;;;;;;;4.05;2.85;;;31.70;91.40;;;;;;4978411;28;20216;-71
2023/08/24 11:22:23;;;;;;;6.55;3.22;;;31.70;91.30;;;;;;4986369;28;20694;-71
2023/08/24 11:24:48;;;;;;;6.15;3.72;;;31.80;91.20;;;;;;4972212;28;20194;-71
2023/08/24 11:27:16;;;;;;;4.55;3.22;;;31.70;91.30;;;;;;4979917;28;20307;-71
2023/08/24 11:29:41;;;;;;;3.92;2.85;;;31.50;91.30;;;;;;4981646;28;20268;-71
2023/08/24 11:32:07;;;;;;;6.80;3.55;;;31.50;91.80;;;;;;4999516;28;20217;-71
2023/08/24 11:34:35;;;;;;;5.00;3.20;;;31.40;91.40;;;;;;4988258;28;20213;-71
2023/08/24 11:37:01;;;;;;;5.10;3.03;;;31.10;91.70;;;;;;4991225;28;20589;-71
2023/08/24 11:39:31;;;;;;;5.43;3.08;;;31.00;92.20;;;;;;4988279;28;20225;-71
2023/08/24 11:42:03;;;;;;;4.45;2.80;;;31.10;92.30;;;;;;4997219;28;20214;-72
2023/08/24 11:44:30;;;;;;;3.60;2.45;;;31.00;92.50;;;;;;4991814;28;20217;-72
2023/08/24 11:46:59;;;;;;;3.75;2.60;;;31.20;92.10;;;;;;4982337;28;20222;-71
2023/08/24 11:49:25;;;;;;;3.40;2.40;;;31.10;92.40;;;;;;4986823;28;20686;-71
2023/08/24 11:51:51;;;;;;;4.45;2.67;;;31.30;92.20;;;;;;4985233;28;20684;-71
2023/08/24 11:54:20;;;;;;;5.90;3.10;;;31.00;91.80;;;;;;4989225;28;20257;-71
2023/08/24 11:56:46;;;;;;;7.18;3.40;;;30.80;92.00;;;;;;4981977;28;20222;-71
2023/08/24 11:59:16;;;;;;;5.70;3.33;;;30.90;92.10;;;;;;4979826;28;20210;-72
2023/08/24 12:01:42;;;;;;;5.45;4.13;;;30.90;92.10;;;;;;4979885;28;20688;-72
2023/08/24 12:04:08;;;;;;;6.57;3.85;;;31.00;91.90;;;;;;4986939;28;20185;-72
2023/08/24 12:06:34;;;;;;;3.85;3.20;;;31.00;92.00;;;;;;4992797;28;20700;-72
2023/08/24 12:09:00;;;;;;;4.93;3.67;;;30.90;92.30;;;;;;4999358;28;20217;-72
2023/08/24 12:11:26;;;;;;;6.07;3.33;;;30.90;92.20;;;;;;4987751;28;20683;-72
2023/08/24 12:13:55;;;;;;;8.77;2.50;;;30.90;92.30;;;;;;4996487;28;20245;-70
2023/08/24 12:16:23;;;;;;;5.63;2.97;;;31.00;92.40;;;;;;4992486;28;20295;-72
2023/08/24 12:18:55;;;;;;;5.30;2.97;;;31.10;92.40;;;;;;4994996;28;20186;-72
2023/08/24 12:21:24;;;;;;;4.80;3.17;;;31.20;92.20;;;;;;4997763;28;20216;-72
2023/08/24 12:24:00;;;;;;;5.47;3.15;;;31.00;92.10;;;;;;4994018;28;20202;-72
2023/08/24 12:26:27;;;;;;;11.23;3.40;;;30.90;92.10;;;;;;4991342;28;20210;-72
2023/08/24 12:28:53;;;;;;;5.75;2.45;;;30.80;92.40;;;;;;4989636;28;20210;-72
2023/08/24 12:31:19;;;;;;;2.97;2.65;;;30.80;92.60;;;;;;4994702;28;20651;-72
2023/08/24 12:33:46;;;;;;;7.15;2.80;;;30.70;92.80;;;;;;4986342;28;20217;-72
2023/08/24 12:36:11;;;;;;;3.72;2.90;;;30.60;92.90;;;;;;4987590;28;20209;-72
2023/08/24 12:38:38;;;;;;;3.67;2.88;;;30.10;92.80;;;;;;4983113;28;20214;-73
2023/08/24 12:41:03;;;;;;;3.25;2.78;;;30.20;92.90;;;;;;4993258;28;20206;-72
2023/08/24 12:43:29;;;;;;;4.57;2.63;;;30.40;93.20;;;;;;5001413;28;20226;-73
2023/08/24 12:45:55;;;;;;;5.20;3.95;;;30.40;93.00;;;;;;4999997;28;20201;-72